AirNav   ProFlight Series 2 Aviation Headset
 
 291 users online  

KNDY Dahlgren Naval Surface Warfare Center Airport
Dahlgren, Virginia, USA

GOING TO DAHLGREN?


FAA INFORMATION EFFECTIVE 18 JUNE 2020

Location

FAA Identifier: NDY
Lat/Long: 38-19-58.3600N 077-02-13.2400W
38-19.972667N 077-02.220667W
38.3328778,-77.0370111
(estimated)
Elevation: 18 ft. / 5 m (estimated)
Variation: 09W (1985)
Time zone: UTC -4 (UTC -5 during Standard Time)
Zip code: 22448

Airport Operations

Airport use: Private use. Permission required prior to landing
Activation date: 01/1942
Control tower: no
ARTCC: WASHINGTON CENTER
FSS: LEESBURG FLIGHT SERVICE STATION
Attendance: 
OPERATING HRS 0700-1600 MON-FRI EXCEPT HOL. (10 MIN PRIOR ARR CTC DAHLGREN OPS ON CTAF FOR ADVISORY. IF NO RESPONSE CALL FIRE COMMUNICATIONS AND REQ ADVISORY AND CRASH VEHICLE.)
Segmented circle: no
Lights: AVBL ONLY DURING HRS OF OPERATION.

Airport Communications

CTAF: 120.15
WX AWOS-3 at EZF (20 nm W): 128.125 (540-372-6794)

Nearby radio navigation aids

VOR radial/distance  VOR name  Freq  Var
BRVr100/14.9BROOKE VORTAC114.5009W
OTTr222/26.3NOTTINGHAM VORTAC113.7010W
ADWr206/29.6ANDREWS VORTAC113.1010W
PXTr285/30.1PATUXENT VORTAC117.6010W
DCAr189/31.6WASHINGTON VOR/DME111.0009W

 
NDB name  Hdg/Dist  Freq  Var  ID
SHANNON088/19.923710WEZF . --.. ..-.
DAVEE179/20.022309WDAA -.. .- .-
OXONN192/26.033211WDCA -.. -.-. .-
PATUXENT285/30.040010WNHK -. .... -.-
GEORGETOWN182/36.132309WGTN --. - -.

Airport Services

Runway Information

Runway 16/34

Dimensions: 4191 x 150 ft. / 1277 x 46 m
Surface: asphalt
Weight bearing capacity: 
Single wheel: 35.0
Double wheel: 85.0
Double tandem: 92.0
Runway edge lights: low intensity
Operational restrictions: CLSD.
RUNWAY 16  RUNWAY 34
Latitude: 38-20.265810N38-19.679592N
Longitude: 077-02.452202W077-01.989055W
Elevation: 17.9 ft.16.0 ft.
Traffic pattern: rightleft
Runway heading: 157 magnetic, 148 true337 magnetic, 328 true
Visual slope indicator: 2-light PAPI on left2-light PAPI on left
Approach lights: ODALS: omnidirectional approach lighting system
Runway end identifier lights: yes
Touchdown point: yes, no lightsyes, no lights

Airport Ownership and Management from official FAA records

Ownership: U.S. Navy
Owner: US NAVY
OCEANOGRAPHIC OFC - CODE 3142
WASHINGTON, DC 20373

Additional Remarks

A17-1 PPR, 24 HR ADVANCE NTC, V249-8638. OFFL BUS ONLY. C703-663-8638/8639.
GUN TESTS CONDUCTED OVER RIVER RANGE TO SE & EXPLOSIVE TESTS OVER LAND TO SOUTH.
NO SERVICES.
RSTD: DAY VFR HELICOPTER USE ONLY. NO FUEL OR MAINT SVC AVBL.
FOR CD CTC WASHINGTON ARTCC AT 703-771-3587.

Instrument Procedures

There are no published instrument procedures at KNDY.

Some nearby airports with instrument procedures:

2W5 - Maryland Airport (16 nm N)
KNYG - Quantico Marine Corps Airfield / Turner Field (16 nm NW)
KEZF - Shannon Airport (20 nm W)
KRMN - Stafford Regional Airport (20 nm W)
2W6 - St Mary's County Regional Airport (23 nm E)
 
Loc | Ops | Rwys | IFR | FBO | Links
Com | Nav | Svcs | Stats | Notes
Area around KNDY (Dahlgren Naval Surface Warfare Center Airport)
 
Road maps at: MapQuest Bing Google
 
Aerial photo
WARNING: Photo may not be current or correct
Aerial photo of KNDY (Dahlgren Naval Surface Warfare Center Airport)
Do you have a better or more recent aerial photo of Dahlgren Naval Surface Warfare Center Airport that you would like to share? If so, please send us your photo.

 
Sectional chart

 
Airport distance calculator
Flying to Dahlgren Naval Surface Warfare Center Airport? Find the distance to fly.

From to KNDY

Sunrise and sunset
Times for 11-Jul-2020
 Local
(UTC-4)
 Zulu
(UTC)
Morning civil twilight05:2509:25
Sunrise05:5609:56
Sunset20:3200:32
Evening civil twilight21:0301:03

Current date and time
Zulu (UTC)  11-Jul-2020 10:01:11
Local (UTC-4)  11-Jul-2020 06:01:11
 
METAR
KNYG 
15nm NW 
110956Z AUTO 24004KT 10SM CLR 24/21 A2972 RMK AO2 SLP066 T02390206
KEZF 
20nm W 
110955Z AUTO 16004KT 10SM CLR 22/22 A2972 RMK AO2 T02230220
KRMN 
20nm W 
110955Z AUTO 00000KT 10SM CLR 22/22 A2976 RMK AO2 T02160216
K2W6 
23nm E 
110715Z AUTO 22003KT 10SM CLR 25/20 A2975 RMK AO1
KDAA 
24nm N 
110956Z AUTO 00000KT 10SM CLR 23/21 A2971 RMK AO2 SLP063 T02290206 $
KXSA 
29nm S 
110955Z AUTO 16004KT 10SM RA CLR 22/22 A2975 RMK AO2 T02210221
KADW 
30nm N 
110956Z AUTO 24004KT 10SM CLR 24/20 A2971 RMK AO2 VIS 2 3/4 RWY01R SLP065 T02370200 FZRANO $
KNHK 
30nm E 
110952Z AUTO 21004KT 10SM CLR 24/22 A2973 RMK AO2 SLP066 T02440222 $
TAF
KNYG 
15nm NW 
1021/1121 VRB05KT 9999 BKN040 QNH2964INS TEMPO 1102/1108 VRB15G25KT 4800 TSRA BKN040CB BECMG 1108/1110 27006KT 9999 SCT040 BKN050 QNH2965INS T24/1110Z T33/1121Z LAST NO AMENDS UNTIL 1109Z
NOTAMs
Click for the latest NOTAMs
NOTAMs are issued by the DoD/FAA and will open in a separate window not controlled by AirNav.

 

 
 

Would you like to see your business listed on this page?

 If your business provides an interesting product or service to pilots, flight crews, aircraft, or users of the Dahlgren Naval Surface Warfare Center Airport, you should consider listing it here.  To start the listing process, click on the button below
 
Add a business
 

Other Pages about Dahlgren Naval Surface Warfare Center Airport

Update a link
 
Copyright © AirNav, LLC. All rights reserved. Privacy Policy  Contact